createdAt,value
2019-04-27T00:02:18.158Z,40.97
2019-04-27T00:04:55.893Z,41.05
2019-04-27T00:07:33.677Z,41.24
2019-04-27T00:10:05.018Z,41.43
2019-04-27T00:12:35.949Z,41.66
2019-04-27T00:15:07.071Z,41.89
2019-04-27T00:17:58.330Z,41.86
2019-04-27T00:20:28.005Z,41.78
2019-04-27T00:22:58.803Z,42.08
2019-04-27T00:25:30.809Z,41.96
2019-04-27T00:28:00.061Z,42.01
2019-04-27T00:30:29.295Z,42.03
2019-04-27T00:32:59.872Z,41.95
2019-04-27T00:35:30.664Z,41.92
2019-04-27T00:38:07.573Z,42.05
2019-04-27T00:40:39.996Z,42.04
2019-04-27T00:43:09.163Z,42.04
2019-04-27T00:45:38.268Z,42.05
2019-04-27T00:48:07.427Z,42.23
2019-04-27T00:50:36.623Z,42.35
2019-04-27T00:53:05.882Z,42.20
2019-04-27T00:55:36.692Z,42.23
2019-04-27T00:58:23.126Z,42.17
2019-04-27T01:00:56.744Z,42.16
2019-04-27T01:03:27.527Z,42.71
2019-04-27T01:05:56.884Z,42.57
2019-04-27T01:08:27.932Z,42.48
2019-04-27T01:10:57.370Z,42.30
2019-04-27T01:13:29.248Z,42.22
2019-04-27T01:15:57.597Z,42.26
2019-04-27T01:18:28.448Z,42.15
2019-04-27T01:20:59.101Z,42.12
2019-04-27T01:23:29.409Z,42.13
2019-04-27T01:26:06.708Z,42.08
2019-04-27T01:28:38.884Z,42.15
2019-04-27T01:31:09.353Z,42.20
2019-04-27T01:33:39.007Z,41.93
2019-04-27T01:36:08.917Z,42.00
2019-04-27T01:38:41.042Z,42.08
2019-04-27T01:41:10.460Z,42.02
2019-04-27T01:43:39.665Z,42.03
2019-04-27T01:46:09.236Z,42.29
2019-04-27T01:48:38.795Z,42.50
2019-04-27T01:51:09.818Z,42.70
2019-04-27T01:56:29.421Z,42.77
2019-04-27T01:58:59.537Z,42.78
2019-04-27T02:01:33.098Z,42.87
2019-04-27T02:04:12.769Z,42.88
2019-04-27T02:06:42.188Z,43.31
2019-04-27T02:09:12.723Z,43.31
2019-04-27T02:11:41.994Z,43.27
2019-04-27T02:14:11.319Z,43.24
2019-04-27T02:16:41.437Z,43.29
2019-04-27T02:19:11.284Z,43.25
2019-04-27T02:21:41.157Z,43.31
2019-04-27T02:24:11.252Z,43.19
2019-04-27T02:26:40.728Z,43.16
2019-04-27T02:29:26.342Z,43.06
2019-04-27T02:31:57.348Z,43.10
2019-04-27T02:34:34.362Z,43.39
2019-04-27T02:37:03.852Z,43.58
2019-04-27T02:39:32.991Z,43.68
2019-04-27T02:42:04.978Z,43.85
2019-04-27T02:44:40.544Z,43.69
2019-04-27T02:47:10.337Z,44.30
2019-04-27T02:49:40.752Z,44.17
2019-04-27T02:52:11.936Z,44.41
2019-04-27T02:54:41.187Z,44.61
2019-04-27T02:57:10.484Z,44.45
2019-04-27T02:59:40.111Z,44.51
2019-04-27T03:02:20.060Z,44.48
2019-04-27T03:04:51.189Z,44.41
2019-04-27T03:07:20.514Z,44.27
2019-04-27T03:09:50.977Z,44.31
2019-04-27T03:12:22.326Z,44.34
2019-04-27T03:15:10.208Z,44.26
2019-04-27T03:17:43.187Z,44.25
2019-04-27T03:20:17.196Z,44.38
2019-04-27T03:22:49.839Z,44.46
2019-04-27T03:25:23.660Z,44.45
2019-04-27T03:28:00.280Z,44.34
2019-04-27T03:30:31.889Z,44.26
2019-04-27T03:33:03.083Z,44.28
2019-04-27T03:35:36.733Z,44.38
2019-04-27T03:38:04.997Z,44.27
2019-04-27T03:40:34.398Z,44.26
2019-04-27T03:43:06.135Z,44.18
2019-04-27T03:45:35.452Z,44.25
2019-04-27T03:48:04.682Z,44.37
2019-04-27T03:50:39.844Z,44.60
2019-04-27T03:53:29.778Z,44.58
2019-04-27T03:56:15.987Z,44.49
2019-04-27T03:58:49.666Z,44.65
2019-04-27T04:01:20.330Z,45.08
2019-04-27T04:03:50.448Z,45.15
2019-04-27T04:06:19.755Z,45.19
2019-04-27T04:08:50.766Z,45.24
2019-04-27T04:11:22.348Z,45.21
2019-04-27T04:13:56.504Z,45.10
2019-04-27T04:16:29.677Z,45.39
2019-04-27T04:19:01.349Z,45.50
2019-04-27T04:21:31.226Z,45.71
2019-04-27T04:24:01.519Z,46.08
2019-04-27T04:26:34.157Z,46.33
2019-04-27T04:29:04.053Z,46.38
2019-04-27T04:31:33.898Z,46.11
2019-04-27T04:34:03.966Z,46.12
2019-04-27T04:36:34.319Z,46.24
2019-04-27T04:39:06.033Z,46.11
2019-04-27T04:41:52.554Z,46.15
2019-04-27T04:44:30.253Z,46.34
2019-04-27T04:47:01.966Z,46.51
2019-04-27T04:49:32.312Z,46.53
2019-04-27T04:52:02.411Z,46.61
2019-04-27T04:54:32.114Z,46.71
2019-04-27T04:57:02.104Z,46.70
2019-04-27T04:59:33.907Z,46.47
2019-04-27T05:02:03.527Z,46.48
2019-04-27T05:04:34.418Z,46.78
2019-04-27T05:07:05.245Z,46.39
2019-04-27T05:09:35.166Z,46.18
2019-04-27T05:12:04.870Z,46.17
2019-04-27T05:14:34.678Z,45.95
2019-04-27T05:17:04.879Z,45.86
2019-04-27T05:19:34.862Z,45.75
2019-04-27T05:22:04.866Z,45.61
2019-04-27T05:24:34.960Z,45.81
2019-04-27T05:27:04.653Z,45.52
2019-04-27T05:29:34.903Z,45.49
2019-04-27T05:32:04.758Z,45.26
2019-04-27T05:34:34.678Z,45.40
2019-04-27T05:37:04.650Z,45.70
2019-04-27T05:39:34.466Z,45.69
2019-04-27T05:42:05.056Z,45.29
2019-04-27T05:45:19.993Z,44.96
2019-04-27T05:48:00.749Z,44.41
2019-04-27T05:50:38.077Z,45.08
2019-04-27T05:53:02.501Z,44.87
2019-04-27T05:55:32.743Z,44.83
2019-04-27T05:58:02.513Z,44.30
2019-04-27T06:00:32.922Z,44.13
2019-04-27T06:03:03.060Z,44.05
2019-04-27T06:05:32.929Z,43.98
2019-04-27T06:08:02.956Z,43.57
2019-04-27T06:10:32.930Z,43.49
2019-04-27T06:13:02.915Z,43.55
2019-04-27T06:15:33.249Z,43.19
2019-04-27T06:18:02.863Z,43.15
2019-04-27T06:20:32.909Z,43.36
2019-04-27T06:23:03.264Z,43.24
2019-04-27T06:25:33.368Z,42.94
2019-04-27T06:28:03.354Z,43.13
2019-04-27T06:30:33.364Z,42.79
2019-04-27T06:33:03.529Z,43.01
2019-04-27T06:35:35.067Z,42.82
2019-04-27T06:38:05.128Z,42.67
2019-04-27T06:40:35.523Z,42.19
2019-04-27T06:43:05.769Z,42.00
2019-04-27T06:45:35.861Z,42.48
2019-04-27T06:48:09.596Z,42.27
2019-04-27T06:50:39.856Z,41.95
2019-04-27T06:53:09.849Z,42.17
2019-04-27T06:55:39.950Z,42.25
2019-04-27T06:58:10.211Z,42.10
2019-04-27T07:00:40.179Z,41.93
2019-04-27T07:03:12.081Z,41.75
2019-04-27T07:06:04.837Z,42.00
2019-04-27T07:08:35.228Z,42.28
2019-04-27T07:11:04.870Z,42.39
2019-04-27T07:13:34.818Z,42.39
2019-04-27T07:16:04.726Z,42.77
2019-04-27T07:18:36.168Z,42.22
2019-04-27T07:21:16.153Z,42.25
2019-04-27T07:23:39.808Z,43.02
2019-04-27T07:26:10.007Z,42.85
2019-04-27T07:28:40.994Z,43.22
2019-04-27T07:31:11.617Z,43.12
2019-04-27T07:33:41.455Z,42.69
2019-04-27T07:36:11.608Z,42.89
2019-04-27T07:38:41.659Z,42.60
2019-04-27T07:41:12.220Z,42.83
2019-04-27T07:43:43.905Z,43.23
2019-04-27T07:46:13.957Z,43.76
2019-04-27T07:48:43.958Z,43.81
2019-04-27T07:51:14.243Z,44.11
2019-04-27T07:53:44.115Z,44.05
2019-04-27T07:56:14.122Z,44.09
2019-04-27T07:58:46.164Z,43.63
2019-04-27T08:01:16.655Z,43.58
2019-04-27T08:03:46.585Z,43.85
2019-04-27T08:06:16.504Z,43.34
2019-04-27T08:08:49.209Z,43.22
2019-04-27T08:11:22.049Z,43.73
2019-04-27T08:13:52.903Z,44.04
2019-04-27T08:16:23.007Z,43.86
2019-04-27T08:18:53.125Z,44.34
2019-04-27T08:21:23.225Z,44.30
2019-04-27T08:23:53.105Z,44.52
2019-04-27T08:26:24.743Z,44.18
2019-04-27T08:28:56.369Z,44.03
2019-04-27T08:31:33.878Z,44.48
2019-04-27T08:34:04.652Z,44.70
2019-04-27T08:36:34.350Z,44.21
2019-04-27T08:39:05.760Z,44.25
2019-04-27T08:41:35.633Z,44.35
2019-04-27T08:44:05.503Z,44.52
2019-04-27T08:46:35.684Z,43.60
2019-04-27T08:49:05.775Z,44.39
2019-04-27T08:51:37.017Z,44.48
2019-04-27T08:54:06.887Z,44.43
2019-04-27T08:56:36.854Z,44.14
2019-04-27T08:59:06.718Z,44.12
2019-04-27T09:01:37.047Z,43.78
2019-04-27T09:04:07.207Z,43.37
2019-04-27T09:06:39.901Z,43.53
2019-04-27T09:09:29.538Z,43.45
2019-04-27T09:12:01.337Z,43.91
2019-04-27T09:14:41.955Z,43.32
2019-04-27T09:17:16.004Z,43.33
2019-04-27T09:19:50.436Z,43.54
2019-04-27T09:22:20.944Z,44.01
2019-04-27T09:24:50.575Z,44.39
2019-04-27T09:27:20.624Z,44.69
2019-04-27T09:29:51.151Z,44.08
2019-04-27T09:32:21.623Z,44.64
2019-04-27T09:34:52.129Z,44.30
2019-04-27T09:37:22.034Z,44.05
2019-04-27T09:39:53.079Z,42.57
2019-04-27T09:42:22.941Z,43.03
2019-04-27T09:44:53.060Z,43.90
2019-04-27T09:47:23.092Z,40.03
2019-04-27T09:49:53.465Z,39.25
2019-04-27T09:52:26.969Z,37.84
2019-04-27T09:54:57.057Z,36.10
2019-04-27T09:57:27.365Z,34.82
2019-04-27T09:59:57.418Z,35.10
2019-04-27T10:02:27.874Z,35.02
2019-04-27T10:04:57.995Z,35.70
2019-04-27T10:07:27.941Z,34.66
2019-04-27T10:09:58.821Z,36.47
2019-04-27T10:12:28.632Z,37.25
2019-04-27T10:14:58.797Z,35.99
2019-04-27T10:17:28.977Z,36.05
2019-04-27T10:19:58.778Z,35.75
2019-04-27T10:22:40.384Z,33.92
2019-04-27T10:25:00.768Z,33.34
2019-04-27T10:27:32.028Z,33.84
2019-04-27T10:30:02.756Z,33.99
2019-04-27T10:32:33.058Z,32.27
2019-04-27T10:35:03.018Z,30.94
2019-04-27T10:37:33.208Z,29.28
2019-04-27T10:40:03.489Z,28.82
2019-04-27T10:42:33.729Z,29.81
2019-04-27T10:45:04.027Z,31.48
2019-04-27T10:47:36.019Z,32.57
2019-04-27T10:50:06.839Z,31.88
2019-04-27T10:52:37.505Z,29.91
2019-04-27T10:55:09.145Z,28.59
2019-04-27T10:57:39.603Z,29.51
2019-04-27T11:00:12.202Z,29.68
2019-04-27T11:02:42.623Z,30.12
2019-04-27T11:05:22.907Z,30.80
2019-04-27T11:07:56.362Z,31.49
2019-04-27T11:10:27.403Z,32.65
2019-04-27T11:12:57.397Z,32.71
2019-04-27T11:15:27.479Z,33.55
2019-04-27T11:17:57.531Z,33.08
2019-04-27T11:20:29.337Z,32.74
2019-04-27T11:23:07.138Z,32.21
2019-04-27T11:25:31.069Z,30.56
2019-04-27T11:28:01.903Z,30.99
2019-04-27T11:30:32.138Z,32.13
2019-04-27T11:33:02.054Z,32.65
2019-04-27T11:35:39.237Z,33.66
2019-04-27T11:38:11.448Z,36.68
2019-04-27T11:40:41.353Z,38.36
2019-04-27T11:43:11.379Z,39.57
2019-04-27T11:45:41.505Z,41.54
2019-04-27T11:48:11.514Z,41.24
2019-04-27T11:50:41.553Z,41.75
2019-04-27T11:53:22.074Z,41.16
2019-04-27T11:55:43.199Z,40.66
2019-04-27T11:58:13.189Z,37.24
2019-04-27T12:00:43.336Z,36.07
2019-04-27T12:03:13.817Z,34.34
2019-04-27T12:05:43.921Z,31.83
2019-04-27T12:08:16.076Z,29.34
2019-04-27T12:10:48.394Z,30.70
2019-04-27T12:13:18.523Z,28.47
2019-04-27T12:15:48.986Z,28.36
2019-04-27T12:18:19.305Z,28.00
2019-04-27T12:20:49.323Z,28.07
2019-04-27T12:23:32.733Z,27.07
2019-04-27T12:25:50.980Z,25.81
2019-04-27T12:28:27.216Z,24.09
2019-04-27T12:30:59.401Z,23.29
2019-04-27T12:33:29.237Z,24.11
2019-04-27T12:35:59.501Z,22.66
2019-04-27T12:38:29.991Z,23.51
2019-04-27T12:41:00.421Z,22.65
2019-04-27T12:43:30.432Z,21.79
2019-04-27T12:46:00.812Z,20.65
2019-04-27T12:48:31.257Z,19.77
2019-04-27T12:51:01.650Z,20.94
2019-04-27T12:53:47.728Z,20.40
2019-04-27T12:56:12.973Z,20.22
2019-04-27T12:58:51.066Z,20.80
2019-04-27T13:01:23.221Z,21.22
2019-04-27T13:03:56.623Z,21.28
2019-04-27T13:06:25.983Z,19.37
2019-04-27T13:08:56.576Z,18.91
2019-04-27T13:11:27.184Z,19.86
2019-04-27T13:13:58.156Z,22.43
2019-04-27T13:16:30.390Z,22.85
2019-04-27T13:19:01.630Z,23.32
2019-04-27T13:21:32.019Z,23.61
2019-04-27T13:24:05.098Z,22.55
2019-04-27T13:26:36.197Z,22.92
2019-04-27T13:29:06.845Z,22.81
2019-04-27T13:31:37.003Z,21.68
2019-04-27T13:34:07.575Z,21.96
2019-04-27T13:36:38.106Z,23.54
2019-04-27T13:39:08.633Z,24.99
2019-04-27T13:41:38.585Z,26.02
2019-04-27T13:44:08.813Z,27.37
2019-04-27T13:46:56.535Z,27.48
2019-04-27T13:49:27.958Z,30.49
2019-04-27T13:51:59.698Z,32.50
2019-04-27T13:54:30.030Z,34.83
2019-04-27T13:57:00.409Z,36.70
2019-04-27T13:59:31.806Z,37.99
2019-04-27T14:02:01.973Z,38.77
2019-04-27T14:04:31.986Z,39.59
2019-04-27T14:07:02.027Z,39.93
2019-04-27T14:09:31.914Z,39.52
2019-04-27T14:12:06.163Z,38.92
2019-04-27T14:14:36.491Z,38.85
2019-04-27T14:17:07.882Z,38.54
2019-04-27T14:19:39.492Z,38.09
2019-04-27T14:22:09.309Z,38.00
2019-04-27T14:24:40.594Z,37.82
2019-04-27T14:27:10.592Z,37.55
2019-04-27T14:29:40.632Z,36.73
2019-04-27T14:32:10.844Z,36.68
2019-04-27T14:34:40.632Z,35.51
2019-04-27T14:37:10.632Z,34.44
2019-04-27T14:39:42.710Z,32.72
2019-04-27T14:42:13.014Z,31.05
2019-04-27T14:44:43.566Z,28.79
2019-04-27T14:47:14.134Z,26.23
2019-04-27T14:49:44.350Z,24.34
2019-04-27T14:52:14.346Z,22.92
2019-04-27T14:54:48.101Z,20.36
2019-04-27T14:57:16.544Z,20.59
2019-04-27T14:59:46.949Z,20.31
2019-04-27T15:02:18.547Z,18.67
2019-04-27T15:04:48.956Z,17.99
2019-04-27T15:07:19.602Z,18.78
2019-04-27T15:09:53.799Z,17.58
2019-04-27T15:12:24.399Z,17.19
2019-04-27T15:14:53.300Z,17.42
2019-04-27T15:17:26.646Z,17.57
2019-04-27T15:20:13.072Z,17.67
2019-04-27T15:22:43.811Z,17.58
2019-04-27T15:25:15.718Z,16.39
2019-04-27T15:27:47.771Z,16.22
2019-04-27T15:30:39.643Z,17.50
2019-04-27T15:33:26.155Z,17.94
2019-04-27T15:36:08.398Z,18.33
2019-04-27T15:38:47.002Z,18.07
2019-04-27T15:41:19.635Z,17.98
2019-04-27T15:43:50.163Z,17.84
2019-04-27T15:46:21.456Z,17.47
2019-04-27T15:48:54.195Z,18.43
2019-04-27T15:51:23.050Z,18.85
2019-04-27T15:53:54.003Z,20.49
2019-04-27T15:56:23.890Z,22.60
2019-04-27T15:58:55.702Z,23.80
2019-04-27T16:01:25.476Z,25.06
2019-04-27T16:03:55.236Z,26.01
2019-04-27T16:06:25.536Z,26.73
2019-04-27T16:08:55.783Z,28.37
2019-04-27T16:11:25.665Z,29.00
2019-04-27T16:13:55.798Z,29.06
2019-04-27T16:16:29.082Z,29.29
2019-04-27T16:18:59.331Z,29.41
2019-04-27T16:21:31.503Z,27.06
2019-04-27T16:24:01.180Z,25.71
2019-04-27T16:26:31.202Z,24.71
2019-04-27T16:29:01.947Z,22.26
2019-04-27T16:31:33.757Z,20.80
2019-04-27T16:34:04.297Z,20.29
2019-04-27T16:36:37.760Z,20.69
2019-04-27T16:39:10.085Z,20.30
2019-04-27T16:41:42.023Z,21.11
2019-04-27T16:44:11.818Z,20.48
2019-04-27T16:46:42.950Z,21.14
2019-04-27T16:49:14.829Z,21.42
2019-04-27T16:51:44.894Z,21.83
2019-04-27T16:54:17.691Z,22.26
2019-04-27T16:56:53.412Z,23.49
2019-04-27T16:59:39.567Z,24.63
2019-04-27T17:01:50.473Z,25.36
2019-04-27T17:04:20.268Z,26.02
2019-04-27T17:06:50.638Z,27.32
2019-04-27T17:09:20.461Z,28.18
2019-04-27T17:11:51.806Z,28.79
2019-04-27T17:14:35.251Z,29.30
2019-04-27T17:17:10.394Z,29.25
2019-04-27T17:19:42.476Z,29.20
2019-04-27T17:22:14.755Z,29.39
2019-04-27T17:24:46.785Z,29.57
2019-04-27T17:27:22.837Z,30.16
2019-04-27T17:29:57.404Z,30.86
2019-04-27T17:32:25.516Z,31.36
2019-04-27T17:34:55.500Z,31.92
2019-04-27T17:37:30.011Z,32.28
2019-04-27T17:39:59.435Z,32.56
2019-04-27T17:42:30.636Z,32.44
2019-04-27T17:45:00.657Z,32.64
2019-04-27T17:47:30.666Z,32.77
2019-04-27T17:50:00.471Z,33.32
2019-04-27T17:52:30.578Z,33.31
2019-04-27T17:55:00.694Z,33.17
2019-04-27T17:57:30.624Z,33.06
2019-04-27T18:00:03.245Z,32.90
2019-04-27T18:02:33.783Z,32.90
2019-04-27T18:05:03.799Z,33.01
2019-04-27T18:07:34.893Z,32.71
2019-04-27T18:10:06.598Z,32.80
2019-04-27T18:12:36.606Z,32.73
2019-04-27T18:15:10.555Z,32.08
2019-04-27T18:17:44.571Z,32.36
2019-04-27T18:20:13.188Z,32.81
2019-04-27T18:22:50.519Z,32.93
2019-04-27T18:25:20.464Z,32.76
2019-04-27T18:27:52.046Z,32.76
2019-04-27T18:30:29.367Z,32.95
2019-04-27T18:33:02.014Z,32.59
2019-04-27T18:35:31.225Z,32.46
2019-04-27T18:38:01.931Z,32.62
2019-04-27T18:40:33.572Z,32.61
2019-04-27T18:43:06.567Z,32.42
2019-04-27T18:45:38.117Z,32.33
2019-04-27T18:48:13.537Z,32.30
2019-04-27T18:50:43.478Z,32.46
2019-04-27T18:53:16.374Z,32.55
2019-04-27T18:55:49.995Z,33.02
2019-04-27T18:58:18.857Z,33.07
2019-04-27T19:00:48.468Z,33.23
2019-04-27T19:03:18.449Z,33.63
2019-04-27T19:05:48.231Z,34.74
2019-04-27T19:08:19.943Z,36.25
2019-04-27T19:10:48.715Z,36.64
2019-04-27T19:13:19.225Z,38.08
2019-04-27T19:15:49.011Z,39.63
2019-04-27T19:18:18.904Z,41.06
2019-04-27T19:20:48.343Z,41.62
2019-04-27T19:23:17.717Z,42.21
2019-04-27T19:25:48.602Z,42.43
2019-04-27T19:28:23.136Z,42.26
2019-04-27T19:30:54.032Z,41.85
2019-04-27T19:33:23.245Z,40.70
2019-04-27T19:35:52.642Z,40.06
2019-04-27T19:38:21.839Z,39.31
2019-04-27T19:40:51.222Z,39.80
2019-04-27T19:43:20.498Z,40.18
2019-04-27T19:45:49.787Z,41.37
2019-04-27T19:48:19.034Z,41.38
2019-04-27T19:50:48.182Z,41.60
2019-04-27T19:53:19.427Z,41.92
2019-04-27T19:56:03.960Z,41.91
2019-04-27T19:58:34.969Z,42.40
2019-04-27T20:01:11.768Z,42.08
2019-04-27T20:03:41.393Z,42.05
2019-04-27T20:06:10.849Z,41.87
2019-04-27T20:08:41.638Z,41.96
2019-04-27T20:11:10.878Z,41.26
2019-04-27T20:13:41.141Z,41.26
2019-04-27T20:16:10.854Z,41.35
2019-04-27T20:18:43.214Z,40.90
2019-04-27T20:21:12.345Z,40.78
2019-04-27T20:23:41.664Z,40.80
2019-04-27T20:26:10.898Z,40.74
2019-04-27T20:28:41.422Z,40.40
2019-04-27T20:31:11.041Z,40.15
2019-04-27T20:33:43.129Z,39.80
2019-04-27T20:36:12.446Z,40.15
2019-04-27T20:38:41.956Z,40.31
2019-04-27T20:41:11.618Z,40.31
2019-04-27T20:43:42.069Z,40.65
2019-04-27T20:46:11.902Z,40.65
2019-04-27T20:48:41.435Z,40.83
2019-04-27T20:51:11.407Z,41.04
2019-04-27T20:53:45.368Z,40.85
2019-04-27T20:56:14.675Z,41.53
2019-04-27T20:58:43.819Z,41.38
2019-04-27T21:01:13.033Z,41.58
2019-04-27T21:03:43.860Z,41.77
2019-04-27T21:06:14.663Z,41.56
2019-04-27T21:08:44.822Z,41.54
2019-04-27T21:11:14.127Z,41.80
2019-04-27T21:13:43.448Z,42.91
2019-04-27T21:16:12.698Z,42.76
2019-04-27T21:18:42.092Z,42.91
2019-04-27T21:21:11.543Z,42.49
2019-04-27T21:23:41.401Z,42.40
2019-04-27T21:26:10.834Z,42.81
2019-04-27T21:28:41.551Z,42.63
2019-04-27T21:31:12.693Z,42.63
2019-04-27T21:33:42.110Z,42.54
2019-04-27T21:36:11.865Z,42.46
2019-04-27T21:38:43.008Z,42.52
2019-04-27T21:41:12.142Z,42.96
2019-04-27T21:43:43.579Z,42.67
2019-04-27T21:46:12.618Z,42.99
2019-04-27T21:48:41.974Z,42.81
2019-04-27T21:51:11.865Z,42.77
2019-04-27T21:53:57.774Z,42.54
2019-04-27T21:56:27.105Z,42.66
2019-04-27T21:58:56.517Z,42.63
2019-04-27T22:01:27.854Z,42.47
2019-04-27T22:03:57.194Z,42.44
2019-04-27T22:06:26.354Z,42.42
2019-04-27T22:08:55.604Z,42.19
2019-04-27T22:11:25.059Z,42.40
2019-04-27T22:13:54.319Z,42.64
2019-04-27T22:16:23.549Z,42.63
2019-04-27T22:18:52.771Z,42.62
2019-04-27T22:21:22.011Z,42.61
2019-04-27T22:23:53.214Z,42.69
2019-04-27T22:26:22.484Z,42.80
2019-04-27T22:28:52.190Z,42.82
2019-04-27T22:31:21.682Z,43.13
2019-04-27T22:33:54.378Z,43.61
2019-04-27T22:36:21.869Z,43.58
2019-04-27T22:38:51.715Z,43.66
2019-04-27T22:41:31.728Z,43.75
2019-04-27T22:44:08.409Z,43.82
2019-04-27T22:46:45.170Z,43.97
2019-04-27T22:49:14.493Z,44.43
2019-04-27T22:51:43.819Z,44.32
2019-04-27T22:54:13.048Z,44.57
2019-04-27T22:56:43.852Z,44.40
2019-04-27T22:59:17.491Z,44.71
2019-04-27T23:01:51.477Z,45.04
2019-04-27T23:04:27.877Z,45.46
2019-04-27T23:06:57.257Z,45.79
2019-04-27T23:09:26.557Z,45.28
2019-04-27T23:11:55.811Z,44.85
2019-04-27T23:14:25.063Z,44.97
2019-04-27T23:17:03.194Z,45.06
2019-04-27T23:19:32.596Z,45.02
2019-04-27T23:22:01.784Z,45.57
2019-04-27T23:24:31.135Z,46.08
2019-04-27T23:27:03.424Z,46.55
2019-04-27T23:29:33.166Z,46.58
2019-04-27T23:32:06.772Z,46.73
2019-04-27T23:34:36.813Z,46.66
2019-04-27T23:37:06.043Z,46.68
2019-04-27T23:39:35.263Z,46.92
2019-04-27T23:42:06.776Z,46.88
2019-04-27T23:44:35.357Z,46.71
2019-04-27T23:47:04.556Z,46.76
2019-04-27T23:49:33.821Z,46.67
2019-04-27T23:52:04.636Z,46.46
2019-04-27T23:54:33.953Z,46.31
2019-04-27T23:57:03.192Z,46.46
2019-04-27T23:59:33.361Z,46.44
